createdAt,value
2023-01-13T05:22:21.375Z,17.6
2023-01-13T05:27:23.465Z,17.6
2023-01-13T05:32:25.600Z,17.6
2023-01-13T05:37:27.878Z,17.7
2023-01-13T05:42:30.028Z,17.7
2023-01-13T05:47:32.191Z,17.8
2023-01-13T05:52:37.802Z,17.8
2023-01-13T05:57:39.977Z,17.8
2023-01-13T06:02:42.218Z,17.8
2023-01-13T06:07:44.284Z,17.9
2023-01-13T06:12:46.419Z,17.9
2023-01-13T06:17:48.669Z,17.9
2023-01-13T06:22:50.861Z,18
2023-01-13T06:27:53.096Z,18.1
2023-01-13T06:32:55.248Z,18.1
2023-01-13T06:37:57.414Z,18.2
2023-01-13T06:42:59.511Z,18.2
2023-01-13T06:48:01.659Z,18.3
2023-01-13T06:53:03.842Z,18.4
2023-01-13T06:58:06.035Z,18.4
2023-01-13T07:03:08.179Z,18.5
2023-01-13T07:08:10.330Z,18.5
2023-01-13T07:13:12.656Z,18.5
2023-01-13T07:23:26.862Z,18.6
2023-01-13T07:28:29.094Z,18.6
2023-01-13T07:33:31.265Z,18.7
2023-01-13T07:38:33.426Z,18.7
2023-01-13T07:43:35.611Z,18.6
2023-01-13T07:48:37.778Z,18.6
2023-01-13T07:53:39.949Z,18.6
2023-01-13T07:58:42.047Z,18.6
2023-01-13T08:03:44.191Z,18.5
2023-01-13T08:08:46.371Z,18.5
2023-01-13T08:13:48.608Z,18.5
2023-01-13T08:18:50.751Z,18.5
2023-01-13T08:23:52.921Z,18.4
2023-01-13T08:28:55.026Z,18.4
2023-01-13T08:33:57.171Z,18.4
2023-01-13T08:38:59.470Z,18.3
2023-01-13T08:44:01.591Z,18.3
2023-01-13T08:54:14.942Z,18.3
2023-01-13T08:59:17.064Z,18.3
2023-01-13T09:04:19.439Z,18.3
2023-01-13T09:09:21.526Z,18.3
2023-01-13T09:14:23.637Z,18.3
2023-01-13T09:24:39.822Z,18.3
2023-01-13T09:29:41.944Z,18.3
2023-01-13T09:34:44.071Z,18.4
2023-01-13T09:39:46.315Z,18.4
2023-01-13T09:44:48.537Z,18.3
2023-01-13T09:49:50.673Z,18.3
2023-01-13T09:54:52.946Z,18.3
2023-01-13T09:59:55.064Z,18.3
2023-01-13T10:04:57.231Z,18.3
2023-01-13T10:09:59.444Z,18.3
2023-01-13T10:15:01.557Z,18.3
2023-01-13T10:20:03.689Z,18.3
2023-01-13T10:25:06.051Z,18.3
2023-01-13T10:30:08.092Z,18.3
2023-01-13T10:35:10.204Z,18.3
2023-01-13T10:40:12.381Z,18.3
2023-01-13T10:45:14.503Z,18.3
2023-01-13T10:50:16.629Z,18.3
2023-01-13T10:55:18.880Z,18.3
2023-01-13T11:00:21.004Z,18.3
2023-01-13T11:05:23.137Z,18.3
2023-01-13T11:10:25.293Z,18.3
2023-01-13T11:15:27.397Z,18.3
2023-01-13T11:20:29.595Z,18.3
2023-01-13T11:25:31.774Z,18.3
2023-01-13T11:30:33.986Z,18.3
2023-01-13T11:35:36.197Z,18.3
2023-01-13T11:40:38.364Z,18.3
2023-01-13T11:45:40.532Z,18.3
2023-01-13T11:50:42.690Z,18.3
2023-01-13T11:55:44.867Z,18.4
2023-01-13T12:00:47.129Z,18.4
2023-01-13T12:05:49.436Z,18.4
2023-01-13T12:10:51.640Z,18.4
2023-01-13T12:15:53.981Z,18.4
2023-01-13T12:26:08.211Z,18.4
2023-01-13T12:31:10.426Z,18.5
2023-01-13T12:36:12.696Z,18.5
2023-01-13T12:41:14.880Z,18.5
2023-01-13T12:46:17.157Z,18.5
2023-01-13T12:51:19.399Z,18.5
2023-01-13T12:56:21.600Z,18.5
2023-01-13T13:01:23.891Z,18.5
2023-01-13T13:06:26.023Z,18.5
2023-01-13T13:11:28.199Z,18.5
2023-01-13T13:16:30.394Z,18.5
2023-01-13T13:21:32.541Z,18.5
2023-01-13T13:26:34.718Z,18.5
2023-01-13T13:31:36.903Z,18.5
2023-01-13T13:36:39.194Z,18.5
2023-01-13T13:41:41.366Z,18.5
2023-01-13T13:46:43.474Z,18.5
2023-01-13T13:51:45.746Z,18.5
2023-01-13T13:56:47.914Z,18.5
2023-01-13T14:01:50.244Z,18.5
2023-01-13T14:06:52.251Z,18.5
2023-01-13T14:11:54.388Z,18.4
2023-01-13T14:16:56.483Z,18.4
2023-01-13T14:21:58.615Z,18.4
2023-01-13T14:27:00.812Z,18.4
2023-01-13T14:32:02.933Z,18.3
2023-01-13T14:37:05.067Z,18.3
2023-01-13T14:42:07.386Z,18.3
2023-01-13T14:47:09.525Z,18.3
2023-01-13T14:52:11.658Z,18.2
2023-01-13T14:57:13.815Z,18.2
2023-01-13T15:02:15.985Z,18.2
2023-01-13T15:07:18.101Z,18.2
2023-01-13T15:12:20.361Z,18.2
2023-01-13T15:17:22.481Z,18.2
2023-01-13T15:22:24.618Z,18.2
2023-01-13T15:27:26.897Z,18.1
2023-01-13T15:32:29.099Z,18.1
2023-01-13T15:37:31.239Z,18.1
2023-01-13T15:42:33.518Z,18.1
2023-01-13T15:47:35.644Z,18.1
2023-01-13T15:52:37.872Z,18
2023-01-13T15:57:40.075Z,18
2023-01-13T16:02:42.218Z,18
2023-01-13T16:07:44.514Z,18
2023-01-13T16:12:46.680Z,18
2023-01-13T16:17:48.794Z,18
2023-01-13T16:22:51.040Z,18
2023-01-13T16:27:53.202Z,17.9
2023-01-13T16:32:55.430Z,17.9
2023-01-13T16:37:57.586Z,17.9
2023-01-13T16:42:59.764Z,18
2023-01-13T16:48:01.888Z,18
2023-01-13T16:53:04.099Z,18
2023-01-13T16:58:06.329Z,18.1
2023-01-13T17:03:08.544Z,18.1
2023-01-13T17:08:10.684Z,18.2
2023-01-13T17:13:16.203Z,18.2
2023-01-13T17:18:15.082Z,18.3
2023-01-13T17:23:17.325Z,18.3
2023-01-13T17:28:19.506Z,18.4
2023-01-13T17:33:21.672Z,18.5
2023-01-13T17:38:23.941Z,18.6
2023-01-13T17:43:26.153Z,18.6
2023-01-13T17:48:29.310Z,18.6
2023-01-13T17:53:31.468Z,18.7
2023-01-13T17:58:33.789Z,18.8
2023-01-13T18:03:35.985Z,18.8
2023-01-13T18:08:38.165Z,18.9
2023-01-13T18:13:40.339Z,18.9
2023-01-13T18:18:42.438Z,19
2023-01-13T18:23:44.576Z,19
2023-01-13T18:28:46.864Z,19.1
2023-01-13T18:33:49.007Z,19.1
2023-01-13T18:38:51.144Z,19.1
2023-01-13T18:43:53.339Z,19.1
2023-01-13T18:48:55.543Z,19.2
2023-01-13T18:53:57.748Z,19.2
2023-01-13T18:58:59.927Z,19.2
2023-01-13T19:04:02.036Z,19.2
2023-01-13T19:09:04.233Z,19.2
2023-01-13T19:14:06.387Z,19.2
2023-01-13T19:19:08.511Z,19.1
2023-01-13T19:24:10.719Z,19.1
2023-01-13T19:29:12.895Z,19.2
2023-01-13T19:34:15.026Z,19.2
2023-01-13T19:39:17.235Z,19.2
2023-01-13T19:44:19.418Z,19.3
2023-01-13T19:49:21.576Z,19.3
2023-01-13T19:54:23.741Z,19.3
2023-01-13T19:59:25.891Z,19.4
2023-01-13T20:04:28.095Z,19.4
2023-01-13T20:09:30.249Z,19.5
2023-01-13T20:14:32.398Z,19.5
2023-01-13T20:19:34.497Z,19.5
2023-01-13T20:24:36.719Z,19.5
2023-01-13T20:29:38.915Z,19.5
2023-01-13T20:34:41.013Z,19.5
2023-01-13T20:39:43.144Z,19.5
2023-01-13T20:44:45.291Z,19.5
2023-01-13T20:49:47.502Z,19.6
2023-01-13T20:54:49.637Z,19.6
2023-01-13T20:59:52.007Z,19.6
2023-01-13T21:04:54.166Z,19.6
2023-01-13T21:09:56.332Z,19.6
2023-01-13T21:14:58.630Z,19.5
2023-01-13T21:20:01.660Z,19.5
2023-01-13T21:25:02.907Z,19.4
2023-01-13T21:30:05.064Z,19.4
2023-01-13T21:35:07.156Z,19.4
2023-01-13T21:40:09.432Z,19.3
2023-01-13T21:45:11.585Z,19.3
2023-01-13T21:50:13.695Z,19.3
2023-01-13T21:55:15.923Z,19.3
2023-01-13T22:00:18.211Z,19.2
2023-01-13T22:05:20.380Z,19.2
2023-01-13T22:10:25.279Z,19.2
2023-01-13T22:15:27.467Z,19.2
2023-01-13T22:20:29.666Z,19.2
2023-01-13T22:25:31.851Z,19.2
2023-01-13T22:30:34.008Z,19.2
2023-01-13T22:35:36.233Z,19.2
2023-01-13T22:40:38.381Z,19.2
2023-01-13T22:45:40.640Z,19.2
2023-01-13T22:50:42.839Z,19.2
2023-01-13T22:55:44.982Z,19.2
2023-01-13T23:00:47.284Z,19.2
2023-01-13T23:05:49.407Z,19.1
2023-01-13T23:10:51.574Z,19.1
2023-01-13T23:15:53.689Z,19.1
2023-01-13T23:20:55.801Z,19.1
2023-01-13T23:25:58.049Z,19.1
2023-01-13T23:31:00.294Z,19.1
2023-01-13T23:36:02.325Z,19.1
2023-01-13T23:41:04.553Z,19.1
2023-01-13T23:46:06.809Z,19.1
